createdAt,value
2018-04-18T00:01:27.273Z,5.53
2018-04-18T00:03:54.653Z,6.10
2018-04-18T00:06:22.083Z,6.20
2018-04-18T00:08:49.584Z,5.27
2018-04-18T00:11:17.018Z,5.73
2018-04-18T00:13:44.676Z,6.60
2018-04-18T00:16:12.152Z,5.07
2018-04-18T00:18:39.594Z,5.37
2018-04-18T00:21:07.038Z,5.40
2018-04-18T00:23:34.472Z,4.60
2018-04-18T00:26:03.090Z,5.50
2018-04-18T00:28:30.560Z,5.80
2018-04-18T00:30:57.988Z,5.47
2018-04-18T00:33:25.444Z,5.10
2018-04-18T00:35:52.870Z,4.93
2018-04-18T00:38:20.588Z,5.23
2018-04-18T00:40:48.054Z,4.80
2018-04-18T00:43:15.609Z,5.23
2018-04-18T00:45:43.039Z,5.40
2018-04-18T00:48:10.510Z,5.80
2018-04-18T00:50:38.456Z,5.53
2018-04-18T00:53:05.897Z,6.50
2018-04-18T00:55:33.408Z,4.40
2018-04-18T00:58:00.848Z,5.50
2018-04-18T01:00:28.276Z,5.07
2018-04-18T01:02:55.725Z,6.17
2018-04-18T01:05:23.152Z,5.53
2018-04-18T01:07:50.701Z,5.03
2018-04-18T01:10:18.135Z,5.50
2018-04-18T01:12:45.576Z,6.40
2018-04-18T01:15:13.012Z,5.83
2018-04-18T01:17:41.208Z,5.90
2018-04-18T01:20:08.644Z,4.90
2018-04-18T01:22:36.840Z,5.27
2018-04-18T01:25:04.276Z,5.50
2018-04-18T01:27:32.493Z,5.33
2018-04-18T01:29:59.945Z,6.60
2018-04-18T01:32:27.368Z,6.47
2018-04-18T01:34:54.862Z,4.83
2018-04-18T01:37:22.313Z,5.13
2018-04-18T01:39:50.408Z,5.93
2018-04-18T01:42:17.849Z,6.50
2018-04-18T01:44:45.305Z,6.40
2018-04-18T01:47:12.724Z,5.60
2018-04-18T01:49:40.166Z,5.53
2018-04-18T01:52:08.360Z,5.40
2018-04-18T01:54:35.804Z,7.30
2018-04-18T01:57:03.245Z,5.70
2018-04-18T01:59:31.455Z,5.17
2018-04-18T02:01:58.888Z,6.13
2018-04-18T02:04:27.105Z,7.30
2018-04-18T02:06:54.568Z,5.90
2018-04-18T02:09:22.013Z,6.03
2018-04-18T02:11:49.439Z,6.10
2018-04-18T02:14:16.937Z,6.97
2018-04-18T02:16:44.380Z,6.47
2018-04-18T02:19:11.823Z,7.80
2018-04-18T02:21:39.252Z,7.30
2018-04-18T02:24:07.460Z,6.40
2018-04-18T02:26:34.889Z,5.87
2018-04-18T02:29:02.328Z,5.70
2018-04-18T02:31:30.519Z,7.27
2018-04-18T02:33:57.960Z,6.47
2018-04-18T02:36:26.164Z,6.63
2018-04-18T02:38:53.608Z,5.40
2018-04-18T02:41:21.044Z,6.60
2018-04-18T02:43:49.243Z,6.63
2018-04-18T02:46:16.688Z,6.60
2018-04-18T02:48:44.884Z,7.47
2018-04-18T02:51:12.320Z,6.90
2018-04-18T02:53:40.518Z,5.97
2018-04-18T02:56:07.952Z,6.00
2018-04-18T02:58:35.388Z,6.17
2018-04-18T03:01:03.593Z,6.20
2018-04-18T03:03:31.036Z,6.87
2018-04-18T03:05:59.260Z,6.43
2018-04-18T03:08:26.692Z,7.20
2018-04-18T03:10:54.136Z,6.10
2018-04-18T03:13:21.568Z,6.63
2018-04-18T03:15:49.080Z,5.63
2018-04-18T03:18:16.507Z,6.20
2018-04-18T03:20:43.949Z,6.43
2018-04-18T03:23:11.384Z,7.30
2018-04-18T03:25:39.592Z,5.97
2018-04-18T03:28:07.082Z,6.83
2018-04-18T03:30:34.524Z,7.10
2018-04-18T03:33:01.952Z,6.53
2018-04-18T03:35:29.396Z,7.67
2018-04-18T03:37:57.592Z,7.27
2018-04-18T03:40:25.024Z,8.27
2018-04-18T03:42:53.223Z,7.20
2018-04-18T03:45:20.660Z,7.23
2018-04-18T03:47:48.860Z,8.07
2018-04-18T03:50:16.339Z,8.80
2018-04-18T03:52:43.764Z,7.87
2018-04-18T03:55:12.093Z,7.80
2018-04-18T03:57:39.536Z,8.23
2018-04-18T04:00:06.973Z,8.73
2018-04-18T04:02:34.432Z,8.07
2018-04-18T04:05:01.840Z,8.13
2018-04-18T04:07:30.044Z,8.33
2018-04-18T04:09:57.472Z,8.03
2018-04-18T04:12:25.673Z,8.20
2018-04-18T04:14:53.107Z,9.40
2018-04-18T04:17:33.220Z,8.53
2018-04-18T04:20:12.697Z,7.93
2018-04-18T04:22:52.896Z,8.33
2018-04-18T04:25:20.339Z,8.60
2018-04-18T04:27:47.774Z,8.87
2018-04-18T04:30:15.984Z,7.97
2018-04-18T04:32:43.420Z,9.07
2018-04-18T04:35:10.873Z,8.97
2018-04-18T04:37:38.312Z,9.93
2018-04-18T04:40:06.509Z,9.30
2018-04-18T04:42:33.972Z,9.50
2018-04-18T04:45:01.400Z,9.77
2018-04-18T04:47:29.604Z,8.60
2018-04-18T04:49:57.081Z,8.57
2018-04-18T04:52:25.260Z,8.30
2018-04-18T04:54:52.702Z,9.30
2018-04-18T04:57:20.139Z,9.13
2018-04-18T04:59:47.601Z,8.93
2018-04-18T05:02:15.036Z,9.63
2018-04-18T05:04:42.696Z,9.33
2018-04-18T05:07:10.204Z,9.00
2018-04-18T05:09:37.641Z,9.10
2018-04-18T05:12:05.104Z,8.87
2018-04-18T05:14:32.536Z,9.97
2018-04-18T05:16:59.979Z,10.57
2018-04-18T05:19:27.497Z,9.83
2018-04-18T05:21:54.932Z,9.53
2018-04-18T05:24:22.364Z,9.07
2018-04-18T05:26:49.809Z,8.13
2018-04-18T05:29:17.256Z,7.73
2018-04-18T05:31:45.865Z,9.10
2018-04-18T05:34:13.348Z,8.80
2018-04-18T05:36:40.789Z,8.43
2018-04-18T05:39:08.227Z,8.43
2018-04-18T05:41:35.693Z,8.03
2018-04-18T05:44:03.125Z,8.30
2018-04-18T05:46:31.325Z,10.00
2018-04-18T05:48:58.795Z,11.50
2018-04-18T05:51:26.496Z,11.20
2018-04-18T05:53:53.919Z,10.13
2018-04-18T05:56:21.370Z,10.20
2018-04-18T05:58:48.817Z,10.87
2018-04-18T06:01:16.256Z,9.80
2018-04-18T06:03:43.705Z,10.87
2018-04-18T06:06:11.192Z,10.67
2018-04-18T06:08:39.385Z,10.13
2018-04-18T06:11:06.824Z,11.37
2018-04-18T06:13:34.280Z,11.00
2018-04-18T06:16:01.716Z,11.83
2018-04-18T06:18:29.164Z,12.53
2018-04-18T06:20:56.655Z,14.50
2018-04-18T06:23:24.100Z,13.90
2018-04-18T06:25:51.536Z,14.03
2018-04-18T06:28:18.980Z,14.60
2018-04-18T06:30:47.184Z,14.97
2018-04-18T06:33:14.632Z,16.40
2018-04-18T06:35:42.122Z,15.27
2018-04-18T06:38:10.390Z,15.53
2018-04-18T06:40:38.005Z,14.80
2018-04-18T06:43:06.224Z,15.57
2018-04-18T06:45:33.664Z,16.83
2018-04-18T06:48:01.108Z,17.40
2018-04-18T06:50:28.553Z,20.60
2018-04-18T06:52:56.748Z,20.30
2018-04-18T06:55:24.217Z,18.00
2018-04-18T06:57:51.680Z,18.97
2018-04-18T07:00:19.127Z,19.33
2018-04-18T07:02:47.377Z,18.67
2018-04-18T07:05:15.429Z,20.00
2018-04-18T07:07:43.657Z,19.10
2018-04-18T07:10:11.105Z,20.87
2018-04-18T07:12:38.568Z,20.20
2018-04-18T07:15:06.013Z,20.30
2018-04-18T07:17:33.456Z,20.27
2018-04-18T07:20:00.904Z,22.07
2018-04-18T07:22:28.349Z,21.07
2018-04-18T07:24:56.638Z,20.63
2018-04-18T07:27:24.077Z,22.67
2018-04-18T07:29:52.284Z,22.60
2018-04-18T07:32:19.985Z,22.43
2018-04-18T07:34:48.263Z,22.33
2018-04-18T07:37:15.685Z,22.53
2018-04-18T07:39:43.156Z,21.40
2018-04-18T07:42:10.618Z,21.07
2018-04-18T07:44:38.148Z,20.13
2018-04-18T07:47:05.589Z,20.50
2018-04-18T07:49:33.059Z,19.00
2018-04-18T07:52:00.535Z,18.90
2018-04-18T07:54:27.988Z,20.17
2018-04-18T07:56:55.588Z,20.43
2018-04-18T07:59:23.040Z,22.10
2018-04-18T08:01:50.481Z,20.20
2018-04-18T08:04:18.009Z,18.70
2018-04-18T08:06:45.488Z,18.47
2018-04-18T08:09:13.541Z,19.47
2018-04-18T08:11:40.988Z,18.90
2018-04-18T08:14:09.044Z,18.30
2018-04-18T08:16:36.548Z,17.77
2018-04-18T08:19:03.984Z,18.30
2018-04-18T08:21:31.432Z,18.10
2018-04-18T08:23:58.879Z,17.80
2018-04-18T08:26:26.351Z,18.30
2018-04-18T08:28:54.188Z,16.23
2018-04-18T08:31:21.637Z,20.17
2018-04-18T08:33:49.968Z,17.57
2018-04-18T08:36:17.429Z,16.97
2018-04-18T08:38:44.870Z,16.90
2018-04-18T08:41:12.313Z,18.50
2018-04-18T08:43:39.758Z,15.57
2018-04-18T08:46:07.244Z,16.63
2018-04-18T08:48:34.691Z,17.23
2018-04-18T08:51:02.171Z,16.00
2018-04-18T08:53:29.605Z,15.50
2018-04-18T08:55:57.046Z,15.67
2018-04-18T08:58:24.476Z,16.70
2018-04-18T09:00:51.915Z,15.67
2018-04-18T09:03:19.559Z,14.63
2018-04-18T09:05:47.016Z,13.67
2018-04-18T09:08:14.484Z,13.27
2018-04-18T09:10:41.923Z,16.47
2018-04-18T09:13:09.363Z,15.90
2018-04-18T09:15:36.813Z,15.53
2018-04-18T09:18:04.248Z,12.97
2018-04-18T09:20:31.681Z,15.40
2018-04-18T09:22:59.224Z,13.97
2018-04-18T09:25:26.677Z,15.00
2018-04-18T09:27:54.128Z,13.17
2018-04-18T09:30:21.556Z,12.60
2018-04-18T09:32:49.000Z,12.30
2018-04-18T09:35:16.436Z,14.67
2018-04-18T09:37:43.940Z,12.70
2018-04-18T09:40:11.388Z,14.43
2018-04-18T09:42:38.838Z,13.97
2018-04-18T09:45:06.302Z,9.67
2018-04-18T09:47:33.765Z,12.33
2018-04-18T09:50:01.211Z,12.47
2018-04-18T09:52:28.660Z,11.57
2018-04-18T09:54:56.102Z,11.30
2018-04-18T09:57:24.304Z,10.20
2018-04-18T09:59:51.908Z,11.30
2018-04-18T10:02:25.140Z,11.33
2018-04-18T10:04:52.573Z,11.00
2018-04-18T10:07:20.017Z,10.13
2018-04-18T10:09:48.276Z,11.10
2018-04-18T10:12:15.905Z,11.33
2018-04-18T10:14:43.336Z,9.53
2018-04-18T10:17:10.768Z,7.73
2018-04-18T10:19:38.987Z,8.97
2018-04-18T10:22:06.449Z,9.00
2018-04-18T10:24:33.896Z,9.00
2018-04-18T10:27:01.365Z,8.87
2018-04-18T10:29:28.808Z,8.37
2018-04-18T10:31:56.237Z,6.57
2018-04-18T10:34:23.674Z,7.73
2018-04-18T10:36:51.868Z,7.37
2018-04-18T10:39:19.301Z,7.00
2018-04-18T10:41:46.824Z,7.87
2018-04-18T10:44:14.260Z,7.30
2018-04-18T10:46:41.840Z,7.20
2018-04-18T10:49:09.284Z,7.30
2018-04-18T10:51:36.765Z,6.20
2018-04-18T10:54:04.184Z,5.53
2018-04-18T10:56:31.625Z,6.50
2018-04-18T10:58:59.090Z,5.53
2018-04-18T11:01:26.572Z,5.93
2018-04-18T11:03:54.008Z,5.70
2018-04-18T11:06:21.488Z,6.30
2018-04-18T11:08:48.944Z,5.07
2018-04-18T11:11:16.373Z,6.10
2018-04-18T11:13:43.901Z,5.97
2018-04-18T11:16:11.419Z,6.10
2018-04-18T11:18:38.852Z,6.20
2018-04-18T11:21:06.279Z,4.80
2018-04-18T11:23:34.669Z,5.60
2018-04-18T11:26:02.106Z,5.13
2018-04-18T11:28:30.336Z,4.87
2018-04-18T11:30:57.797Z,5.43
2018-04-18T11:33:25.224Z,3.90
2018-04-18T11:35:52.760Z,4.27
2018-04-18T11:38:20.952Z,6.07
2018-04-18T11:40:48.948Z,7.50
2018-04-18T11:43:16.380Z,4.60
2018-04-18T11:45:43.855Z,4.63
2018-04-18T11:48:11.329Z,6.10
2018-04-18T11:50:39.093Z,5.40
2018-04-18T11:53:07.132Z,7.30
2018-04-18T11:55:34.576Z,5.30
2018-04-18T11:58:02.760Z,6.83
2018-04-18T12:00:30.200Z,6.67
2018-04-18T12:02:58.396Z,5.30
2018-04-18T12:05:25.836Z,5.57
2018-04-18T12:07:53.282Z,5.50
2018-04-18T12:10:21.486Z,5.60
2018-04-18T12:12:48.956Z,6.37
2018-04-18T12:15:16.428Z,5.73
2018-04-18T12:17:43.878Z,5.70
2018-04-18T12:20:11.327Z,4.10
2018-04-18T12:22:39.165Z,5.77
2018-04-18T12:25:06.608Z,4.37
2018-04-18T12:27:34.829Z,5.17
2018-04-18T12:30:02.260Z,4.03
2018-04-18T12:32:29.704Z,7.20
2018-04-18T12:34:57.132Z,3.80
2018-04-18T12:37:24.563Z,4.33
2018-04-18T12:39:52.064Z,4.47
2018-04-18T12:42:19.480Z,3.87
2018-04-18T12:44:46.911Z,4.10
2018-04-18T12:47:14.388Z,3.97
2018-04-18T12:49:42.141Z,3.10
2018-04-18T12:52:09.598Z,4.50
2018-04-18T12:54:37.104Z,6.30
2018-04-18T12:57:05.324Z,4.47
2018-04-18T12:59:32.752Z,4.50
2018-04-18T13:02:00.189Z,3.60
2018-04-18T13:04:28.388Z,4.13
2018-04-18T13:06:55.867Z,3.70
2018-04-18T13:09:23.296Z,4.63
2018-04-18T13:11:50.740Z,4.20
2018-04-18T13:14:18.945Z,4.60
2018-04-18T13:16:46.460Z,3.97
2018-04-18T13:19:14.660Z,4.57
2018-04-18T13:21:42.100Z,3.70
2018-04-18T13:24:10.464Z,4.83
2018-04-18T13:26:38.692Z,4.87
2018-04-18T13:29:06.124Z,4.57
2018-04-18T13:31:33.581Z,4.97
2018-04-18T13:34:01.012Z,4.07
2018-04-18T13:36:29.201Z,4.10
2018-04-18T13:38:57.532Z,6.00
2018-04-18T13:41:24.964Z,4.37
2018-04-18T13:43:52.545Z,5.63
2018-04-18T13:46:19.995Z,4.20
2018-04-18T13:48:47.444Z,7.50
2018-04-18T13:51:14.877Z,5.70
2018-04-18T13:53:42.724Z,3.83
2018-04-18T13:56:10.945Z,5.40
2018-04-18T13:58:38.859Z,5.73
2018-04-18T14:01:07.062Z,3.80
2018-04-18T14:03:34.567Z,3.77
2018-04-18T14:06:01.981Z,5.67
2018-04-18T14:08:29.427Z,3.90
2018-04-18T14:10:56.903Z,4.57
2018-04-18T14:13:24.354Z,3.53
2018-04-18T14:15:51.784Z,3.77
2018-04-18T14:18:19.272Z,3.73
2018-04-18T14:20:46.754Z,5.60
2018-04-18T14:23:14.197Z,3.73
2018-04-18T14:25:41.651Z,3.30
2018-04-18T14:28:09.068Z,3.83
2018-04-18T14:30:36.506Z,4.23
2018-04-18T14:33:04.712Z,4.83
2018-04-18T14:35:32.144Z,6.03
2018-04-18T14:38:00.363Z,5.77
2018-04-18T14:40:27.825Z,4.50
2018-04-18T14:42:55.257Z,6.57
2018-04-18T14:45:22.692Z,5.90
2018-04-18T14:47:50.908Z,5.40
2018-04-18T14:50:18.351Z,4.70
2018-04-18T14:52:45.899Z,4.57
2018-04-18T14:55:13.375Z,4.73
2018-04-18T14:57:41.337Z,4.13
2018-04-18T15:00:08.768Z,3.80
2018-04-18T15:02:36.203Z,4.33
2018-04-18T15:05:04.415Z,4.43
2018-04-18T15:07:31.892Z,3.90
2018-04-18T15:10:00.157Z,4.20
2018-04-18T15:12:27.662Z,4.37
2018-04-18T15:14:55.104Z,4.50
2018-04-18T15:17:22.546Z,4.07
2018-04-18T15:19:49.980Z,3.00
2018-04-18T15:22:17.415Z,3.80
2018-04-18T15:24:44.888Z,3.20
2018-04-18T15:27:12.304Z,3.20
2018-04-18T15:29:40.511Z,3.27
2018-04-18T15:32:07.958Z,3.73
2018-04-18T15:34:35.400Z,3.13
2018-04-18T15:37:03.596Z,4.80
2018-04-18T15:39:31.049Z,3.73
2018-04-18T15:41:58.498Z,4.20
2018-04-18T15:44:26.709Z,2.97
2018-04-18T15:46:54.157Z,3.70
2018-04-18T15:49:21.640Z,3.70
2018-04-18T15:51:49.095Z,4.17
2018-04-18T15:54:16.525Z,5.40
2018-04-18T15:56:43.984Z,4.20
2018-04-18T15:59:11.412Z,5.30
2018-04-18T16:01:38.883Z,3.90
2018-04-18T16:04:06.321Z,4.30
2018-04-18T16:06:34.528Z,5.20
2018-04-18T16:09:01.956Z,3.57
2018-04-18T16:11:29.394Z,3.90
2018-04-18T16:13:57.605Z,3.67
2018-04-18T16:16:25.049Z,5.03
2018-04-18T16:18:53.231Z,4.73
2018-04-18T16:21:20.900Z,3.93
2018-04-18T16:23:48.349Z,3.57
2018-04-18T16:26:15.807Z,4.60
2018-04-18T16:28:43.233Z,4.90
2018-04-18T16:31:11.437Z,4.07
2018-04-18T16:33:38.872Z,4.50
2018-04-18T16:36:06.314Z,5.90
2018-04-18T16:38:33.745Z,4.37
2018-04-18T16:41:01.175Z,3.97
2018-04-18T16:43:28.619Z,4.80
2018-04-18T16:45:56.186Z,4.30
2018-04-18T16:48:23.617Z,5.20
2018-04-18T16:50:51.056Z,3.77
2018-04-18T16:53:19.255Z,5.43
2018-04-18T16:55:46.695Z,4.50
2018-04-18T16:58:14.128Z,4.63
2018-04-18T17:03:15.348Z,4.60
2018-04-18T17:05:42.768Z,4.10
2018-04-18T17:08:10.203Z,4.23
2018-04-18T17:10:37.636Z,4.60
2018-04-18T17:13:05.070Z,4.00
2018-04-18T17:15:32.507Z,4.23
2018-04-18T17:18:00.011Z,4.87
2018-04-18T17:20:27.656Z,4.23
2018-04-18T17:22:55.118Z,3.83
2018-04-18T17:25:22.565Z,4.40
2018-04-18T17:27:50.021Z,4.37
2018-04-18T17:30:17.444Z,3.97
2018-04-18T17:32:45.032Z,4.03
2018-04-18T17:35:12.506Z,4.40
2018-04-18T17:37:40.075Z,3.90
2018-04-18T17:40:07.525Z,5.17
2018-04-18T17:42:34.969Z,4.10
2018-04-18T17:45:02.633Z,4.00
2018-04-18T17:47:30.076Z,3.50
2018-04-18T17:49:57.499Z,3.90
2018-04-18T17:52:25.709Z,4.47
2018-04-18T17:54:53.748Z,4.47
2018-04-18T17:57:21.960Z,4.60
2018-04-18T17:59:49.421Z,4.10
2018-04-18T18:02:16.876Z,4.60
2018-04-18T18:04:44.384Z,5.43
2018-04-18T18:07:11.797Z,6.20
2018-04-18T18:09:39.260Z,3.97
2018-04-18T18:12:06.704Z,7.60
2018-04-18T18:14:34.148Z,4.17
2018-04-18T18:17:01.580Z,4.50
2018-04-18T18:19:29.075Z,3.97
2018-04-18T18:21:57.180Z,6.10
2018-04-18T18:24:24.636Z,4.20
2018-04-18T18:26:52.064Z,4.57
2018-04-18T18:29:19.504Z,4.10
2018-04-18T18:31:46.933Z,3.97
2018-04-18T18:34:14.372Z,4.70
2018-04-18T18:36:42.604Z,4.27
2018-04-18T18:39:10.068Z,4.40
2018-04-18T18:41:37.565Z,4.07
2018-04-18T18:44:04.992Z,4.90
2018-04-18T18:46:32.451Z,5.20
2018-04-18T18:48:59.888Z,5.00
2018-04-18T18:51:27.320Z,4.90
2018-04-18T18:53:55.616Z,5.07
2018-04-18T18:56:23.079Z,6.33
2018-04-18T18:58:50.514Z,4.83
2018-04-18T19:01:17.948Z,4.73
2018-04-18T19:03:45.390Z,5.80
2018-04-18T19:06:13.696Z,5.33
2018-04-18T19:08:41.137Z,8.70
2018-04-18T19:11:09.324Z,5.03
2018-04-18T19:13:36.752Z,6.03
2018-04-18T19:16:04.969Z,6.77
2018-04-18T19:18:32.436Z,6.47
2018-04-18T19:21:00.200Z,6.03
2018-04-18T19:23:27.628Z,5.53
2018-04-18T19:25:55.144Z,5.40
2018-04-18T19:28:22.656Z,6.30
2018-04-18T19:30:50.084Z,6.40
2018-04-18T19:33:18.282Z,5.10
2018-04-18T19:35:45.724Z,5.77
2018-04-18T19:38:13.299Z,5.53
2018-04-18T19:40:40.764Z,5.80
2018-04-18T19:43:08.196Z,5.17
2018-04-18T19:45:35.639Z,5.40
2018-04-18T19:48:03.837Z,6.00
2018-04-18T19:50:31.352Z,5.13
2018-04-18T19:52:58.880Z,5.73
2018-04-18T19:55:26.329Z,6.40
2018-04-18T19:57:53.765Z,6.63
2018-04-18T20:00:21.196Z,5.77
2018-04-18T20:02:49.404Z,5.57
2018-04-18T20:05:16.841Z,5.70
2018-04-18T20:07:44.287Z,6.70
2018-04-18T20:10:11.713Z,5.63
2018-04-18T20:12:39.680Z,5.90
2018-04-18T20:15:10.803Z,6.83
2018-04-18T20:17:38.316Z,6.30
2018-04-18T20:20:05.753Z,5.80
2018-04-18T20:22:34.047Z,6.60
2018-04-18T20:25:01.428Z,6.80
2018-04-18T20:27:29.220Z,6.00
2018-04-18T20:29:56.768Z,6.10
2018-04-18T20:32:24.199Z,6.17
2018-04-18T20:34:51.648Z,6.50
2018-04-18T20:37:19.077Z,7.10
2018-04-18T20:39:47.275Z,7.30
2018-04-18T20:42:14.732Z,7.53
2018-04-18T20:44:42.159Z,7.60
2018-04-18T20:47:09.623Z,7.13
2018-04-18T20:49:37.037Z,8.07
2018-04-18T20:52:04.476Z,7.80
2018-04-18T20:54:31.976Z,7.70
2018-04-18T20:56:59.510Z,8.20
2018-04-18T20:59:26.937Z,8.73
2018-04-18T21:01:54.372Z,7.43
2018-04-18T21:04:22.570Z,7.37
2018-04-18T21:06:50.012Z,8.73
2018-04-18T21:09:17.448Z,8.40
2018-04-18T21:11:45.649Z,8.50
2018-04-18T21:14:13.328Z,13.27
2018-04-18T21:16:40.758Z,13.63
2018-04-18T21:19:08.965Z,10.53
2018-04-18T21:21:36.406Z,9.80
2018-04-18T21:24:03.841Z,9.73
2018-04-18T21:26:32.132Z,10.47
2018-04-18T21:28:59.508Z,10.83
2018-04-18T21:31:26.968Z,62.17
2018-04-18T21:33:54.404Z,37.00
2018-04-18T21:36:21.860Z,16.63
2018-04-18T21:38:49.341Z,12.37
2018-04-18T21:41:16.806Z,10.97
2018-04-18T21:43:44.238Z,11.97
2018-04-18T21:46:11.708Z,11.50
2018-04-18T21:48:39.915Z,12.03
2018-04-18T21:51:07.445Z,11.43
2018-04-18T21:53:34.887Z,13.00
2018-04-18T21:56:02.364Z,12.10
2018-04-18T21:58:29.916Z,13.27
2018-04-18T22:00:57.354Z,13.00
2018-04-18T22:03:24.915Z,12.77
2018-04-18T22:05:52.348Z,10.90
2018-04-18T22:08:19.792Z,11.97
2018-04-18T22:10:48.011Z,13.00
2018-04-18T22:13:15.460Z,11.13
2018-04-18T22:15:42.897Z,12.70
2018-04-18T22:18:10.344Z,11.00
2018-04-18T22:20:38.536Z,10.30
2018-04-18T22:23:06.215Z,11.67
2018-04-18T22:25:33.646Z,12.43
2018-04-18T22:28:01.108Z,12.37
2018-04-18T22:30:28.564Z,12.70
2018-04-18T22:32:56.053Z,12.73
2018-04-18T22:35:23.570Z,11.33
2018-04-18T22:37:51.772Z,14.97
2018-04-18T22:40:19.208Z,12.93
2018-04-18T22:42:46.651Z,12.40
2018-04-18T22:45:14.686Z,12.00
2018-04-18T22:47:42.203Z,11.47
2018-04-18T22:50:09.762Z,12.47
2018-04-18T22:52:37.211Z,14.27
2018-04-18T22:55:04.652Z,13.23
2018-04-18T22:57:32.105Z,12.70
2018-04-18T23:00:00.344Z,14.30
2018-04-18T23:02:27.827Z,13.93
2018-04-18T23:04:55.336Z,12.00
2018-04-18T23:07:22.767Z,13.10
2018-04-18T23:09:50.253Z,13.40
2018-04-18T23:12:17.728Z,11.10
2018-04-18T23:14:45.172Z,12.47
2018-04-18T23:17:12.607Z,12.73
2018-04-18T23:19:40.064Z,13.77
2018-04-18T23:22:07.526Z,12.07
2018-04-18T23:24:34.976Z,12.37
2018-04-18T23:27:02.444Z,13.67
2018-04-18T23:29:29.892Z,14.43
2018-04-18T23:31:57.330Z,12.50
2018-04-18T23:34:24.797Z,13.20
2018-04-18T23:36:52.321Z,12.20
2018-04-18T23:39:20.526Z,12.40
2018-04-18T23:41:47.960Z,12.77
2018-04-18T23:44:16.964Z,12.27
2018-04-18T23:46:44.400Z,11.40
2018-04-18T23:49:12.632Z,11.90
2018-04-18T23:51:40.085Z,12.10
2018-04-18T23:54:07.544Z,11.30
2018-04-18T23:56:35.099Z,11.97
2018-04-18T23:59:02.984Z,12.47
